createdAt,value
2023-04-01T00:00:02.850Z,10.77
2023-04-01T00:02:29.677Z,10.81
2023-04-01T00:04:56.533Z,10.81
2023-04-01T00:07:23.375Z,10.82
2023-04-01T00:09:50.350Z,10.83
2023-04-01T00:12:17.350Z,10.81
2023-04-01T00:14:44.512Z,10.76
2023-04-01T00:17:11.645Z,10.75
2023-04-01T00:19:38.718Z,10.74
2023-04-01T00:22:12.440Z,10.75
2023-04-01T00:24:39.743Z,10.78
2023-04-01T00:27:06.685Z,10.81
2023-04-01T00:29:33.823Z,10.78
2023-04-01T00:32:00.666Z,10.79
2023-04-01T00:34:27.999Z,10.84
2023-04-01T00:36:55.113Z,10.85
2023-04-01T00:39:22.299Z,10.76
2023-04-01T00:41:49.251Z,10.76
2023-04-01T00:44:26.467Z,10.75
2023-04-01T00:46:53.780Z,10.73
2023-04-01T00:49:27.906Z,10.70
2023-04-01T00:51:59.530Z,10.68
2023-04-01T00:54:29.521Z,10.65
2023-04-01T00:57:08.361Z,10.59
2023-04-01T00:59:42.215Z,10.57
2023-04-01T01:02:13.592Z,10.49
2023-04-01T01:04:41.030Z,10.49
2023-04-01T01:07:36.080Z,10.48
2023-04-01T01:10:19.030Z,10.48
2023-04-01T01:13:31.159Z,10.53
2023-04-01T01:16:05.373Z,10.58
2023-04-01T01:18:50.074Z,10.61
2023-04-01T01:21:48.658Z,10.60
2023-04-01T01:24:36.159Z,10.61
2023-04-01T01:27:19.340Z,10.60
2023-04-01T01:29:56.244Z,10.59
2023-04-01T01:32:52.200Z,10.60
2023-04-01T01:35:31.699Z,10.57
2023-04-01T01:38:15.317Z,10.60
2023-04-01T01:40:49.048Z,10.58
2023-04-01T01:43:23.920Z,10.59
2023-04-01T01:45:58.261Z,10.56
2023-04-01T01:48:28.782Z,10.56
2023-04-01T01:50:55.852Z,10.51
2023-04-01T01:53:22.742Z,10.46
2023-04-01T01:55:49.880Z,10.41
2023-04-01T01:58:43.324Z,10.36
2023-04-01T02:01:18.384Z,10.39
2023-04-01T02:03:47.370Z,10.41
2023-04-01T02:06:21.107Z,10.46
2023-04-01T02:09:01.827Z,10.47
2023-04-01T02:11:51.264Z,10.46
2023-04-01T02:14:46.032Z,10.50
2023-04-01T02:17:22.807Z,10.55
2023-04-01T02:20:07.271Z,10.52
2023-04-01T02:22:46.250Z,10.41
2023-04-01T02:25:18.895Z,10.33
2023-04-01T02:27:47.759Z,10.28
2023-04-01T02:30:18.157Z,10.18
2023-04-01T02:32:46.095Z,10.10
2023-04-01T02:35:16.495Z,10.08
2023-04-01T02:37:46.397Z,9.94
2023-04-01T02:40:16.147Z,9.89
2023-04-01T02:42:43.162Z,9.85
2023-04-01T02:45:11.525Z,9.92
2023-04-01T02:47:41.253Z,9.94
2023-04-01T02:50:09.670Z,9.96
2023-04-01T02:52:36.764Z,9.94
2023-04-01T02:55:05.492Z,9.96
2023-04-01T02:57:32.378Z,9.91
2023-04-01T02:59:59.815Z,9.88
2023-04-01T03:02:26.911Z,9.82
2023-04-01T03:04:53.807Z,9.87
2023-04-01T03:07:20.611Z,9.83
2023-04-01T03:09:47.360Z,9.79
2023-04-01T03:12:14.182Z,9.75
2023-04-01T03:14:41.205Z,9.80
2023-04-01T03:17:08.190Z,9.71
2023-04-01T03:19:35.025Z,9.70
2023-04-01T03:22:01.832Z,9.68
2023-04-01T03:24:28.631Z,9.68
2023-04-01T03:26:55.551Z,9.71
2023-04-01T03:29:22.323Z,9.73
2023-04-01T03:31:49.072Z,9.75
2023-04-01T03:34:15.999Z,9.77
2023-04-01T03:36:42.764Z,9.74
2023-04-01T03:39:09.580Z,9.73
2023-04-01T03:41:40.340Z,9.77
2023-04-01T03:44:07.451Z,9.76
2023-04-01T03:46:34.526Z,9.79
2023-04-01T03:49:01.338Z,9.79
2023-04-01T03:51:28.245Z,9.78
2023-04-01T03:53:55.344Z,9.83
2023-04-01T03:56:22.204Z,9.78
2023-04-01T03:58:48.978Z,9.83
2023-04-01T04:01:22.192Z,9.86
2023-04-01T04:03:52.382Z,9.87
2023-04-01T04:06:20.667Z,9.86
2023-04-01T04:08:47.561Z,9.85
2023-04-01T04:11:14.631Z,9.95
2023-04-01T04:13:42.357Z,9.96
2023-04-01T04:16:10.920Z,9.93
2023-04-01T04:18:38.546Z,9.97
2023-04-01T04:21:06.080Z,9.97
2023-04-01T04:23:34.512Z,10.00
2023-04-01T04:26:07.484Z,9.99
2023-04-01T04:28:34.971Z,10.00
2023-04-01T04:31:02.910Z,9.95
2023-04-01T04:33:29.732Z,9.95
2023-04-01T04:35:58.775Z,9.92
2023-04-01T04:38:26.561Z,9.93
2023-04-01T04:40:53.472Z,9.90
2023-04-01T04:43:20.516Z,9.86
2023-04-01T04:45:47.881Z,9.90
2023-04-01T04:48:19.451Z,9.95
2023-04-01T04:50:51.400Z,9.95
2023-04-01T04:53:20.310Z,9.98
2023-04-01T04:55:51.122Z,9.96
2023-04-01T04:58:19.222Z,9.93
2023-04-01T05:00:47.073Z,9.88
2023-04-01T05:03:14.856Z,9.85
2023-04-01T05:05:52.321Z,9.83
2023-04-01T05:08:19.315Z,9.87
2023-04-01T05:10:47.075Z,9.92
2023-04-01T05:13:13.884Z,9.94
2023-04-01T05:15:41.059Z,9.95
2023-04-01T05:18:08.067Z,9.97
2023-04-01T05:20:34.947Z,10.01
2023-04-01T05:23:01.874Z,10.03
2023-04-01T05:25:28.804Z,9.99
2023-04-01T05:27:55.889Z,10.01
2023-04-01T05:30:22.835Z,10.03
2023-04-01T05:32:49.726Z,10.03
2023-04-01T05:35:16.648Z,10.07
2023-04-01T05:37:43.605Z,10.12
2023-04-01T05:40:11.420Z,10.14
2023-04-01T05:42:38.620Z,10.10
2023-04-01T05:45:06.354Z,10.13
2023-04-01T05:47:33.182Z,10.16
2023-04-01T05:50:00.136Z,10.16
2023-04-01T05:52:27.228Z,10.17
2023-04-01T05:54:54.045Z,10.17
2023-04-01T05:57:20.980Z,10.13
2023-04-01T05:59:47.961Z,10.09
2023-04-01T06:02:19.583Z,10.04
2023-04-01T06:04:47.278Z,10.02
2023-04-01T06:07:17.238Z,9.99
2023-04-01T06:09:45.931Z,9.96
2023-04-01T06:12:51.368Z,9.86
2023-04-01T06:15:35.130Z,9.79
2023-04-01T06:18:37.213Z,9.76
2023-04-01T06:21:45.961Z,9.74
2023-04-01T06:24:45.582Z,9.76
2023-04-01T06:27:36.135Z,9.81
2023-04-01T06:30:39.191Z,9.69
2023-04-01T06:33:36.249Z,9.64
2023-04-01T06:36:38.934Z,9.62
2023-04-01T06:39:44.071Z,9.56
2023-04-01T06:43:05.397Z,9.65
2023-04-01T06:45:56.831Z,9.69
2023-04-01T06:49:04.617Z,9.62
2023-04-01T06:52:27.405Z,9.64
2023-04-01T06:55:18.700Z,9.67
2023-04-01T06:57:52.249Z,9.69
2023-04-01T07:00:41.661Z,9.58
2023-04-01T07:03:40.933Z,9.60
2023-04-01T07:06:47.551Z,9.59
2023-04-01T07:09:23.589Z,9.53
2023-04-01T07:11:57.700Z,9.57
2023-04-01T07:14:37.253Z,9.62
2023-04-01T07:17:17.809Z,9.66
2023-04-01T07:19:53.692Z,9.78
2023-04-01T07:22:46.882Z,9.69
2023-04-01T07:25:23.550Z,9.74
2023-04-01T07:27:54.019Z,9.81
2023-04-01T07:30:26.384Z,9.88
2023-04-01T07:32:59.368Z,9.89
2023-04-01T07:35:54.440Z,9.94
2023-04-01T07:38:49.812Z,10.00
2023-04-01T07:41:43.485Z,10.04
2023-04-01T07:44:28.924Z,10.01
2023-04-01T07:47:33.704Z,10.02
2023-04-01T07:50:29.523Z,9.99
2023-04-01T07:53:25.258Z,10.01
2023-04-01T07:56:05.903Z,10.00
2023-04-01T07:59:34.384Z,9.95
2023-04-01T08:02:20.947Z,9.86
2023-04-01T08:05:07.465Z,9.82
2023-04-01T08:07:53.630Z,9.75
2023-04-01T08:10:49.082Z,9.63
2023-04-01T08:14:29.174Z,9.49
2023-04-01T08:17:52.691Z,9.37
2023-04-01T08:20:53.516Z,9.36
2023-04-01T08:23:34.782Z,9.48
2023-04-01T08:26:37.722Z,9.54
2023-04-01T08:29:27.709Z,9.56
2023-04-01T08:32:19.282Z,9.50
2023-04-01T08:35:00.278Z,9.61
2023-04-01T08:37:36.219Z,9.70
2023-04-01T08:40:36.630Z,9.73
2023-04-01T08:43:25.225Z,9.75
2023-04-01T08:46:50.599Z,9.84
2023-04-01T08:49:52.771Z,9.90
2023-04-01T08:52:52.973Z,10.16
2023-04-01T08:55:53.274Z,10.34
2023-04-01T08:58:58.196Z,10.40
2023-04-01T09:02:05.685Z,10.52
2023-04-01T09:04:50.639Z,10.55
2023-04-01T09:07:46.554Z,10.49
2023-04-01T09:10:26.487Z,10.43
2023-04-01T09:13:28.633Z,10.61
2023-04-01T09:16:33.007Z,10.53
2023-04-01T09:19:30.948Z,10.55
2023-04-01T09:22:24.852Z,10.57
2023-04-01T09:25:22.547Z,10.56
2023-04-01T09:28:19.293Z,10.68
2023-04-01T09:31:19.328Z,10.62
2023-04-01T09:34:01.508Z,10.64
2023-04-01T09:36:56.848Z,10.91
2023-04-01T09:39:44.946Z,10.79
2023-04-01T09:42:23.763Z,10.80
2023-04-01T09:45:02.143Z,11.03
2023-04-01T09:47:46.469Z,11.17
2023-04-01T09:50:50.547Z,11.49
2023-04-01T09:54:02.539Z,11.64
2023-04-01T09:57:04.867Z,11.68
2023-04-01T10:00:05.911Z,11.46
2023-04-01T10:03:12.839Z,11.31
2023-04-01T10:06:05.121Z,11.31
2023-04-01T10:09:09.570Z,11.35
2023-04-01T10:12:07.519Z,11.29
2023-04-01T10:14:52.375Z,11.26
2023-04-01T10:18:01.182Z,11.30
2023-04-01T10:21:04.735Z,11.18
2023-04-01T10:24:36.900Z,11.25
2023-04-01T10:27:50.682Z,11.29
2023-04-01T10:31:19.643Z,11.46
2023-04-01T10:34:29.447Z,11.76
2023-04-01T10:36:59.866Z,12.02
2023-04-01T10:40:03.910Z,12.05
2023-04-01T10:43:00.212Z,12.19
2023-04-01T10:46:05.029Z,12.54
2023-04-01T10:49:22.110Z,12.81
2023-04-01T10:52:29.945Z,12.92
2023-04-01T10:55:53.881Z,13.02
2023-04-01T10:58:57.475Z,12.93
2023-04-01T11:01:39.021Z,13.28
2023-04-01T11:05:00.200Z,13.84
2023-04-01T11:08:22.742Z,13.55
2023-04-01T11:11:43.604Z,13.87
2023-04-01T11:14:42.212Z,13.49
2023-04-01T11:17:51.650Z,13.18
2023-04-01T11:21:03.264Z,12.81
2023-04-01T11:24:05.483Z,12.57
2023-04-01T11:27:12.339Z,12.45
2023-04-01T11:29:47.030Z,12.05
2023-04-01T11:32:48.880Z,12.00
2023-04-01T11:35:44.108Z,12.12
2023-04-01T11:38:35.237Z,12.26
2023-04-01T11:41:26.490Z,12.07
2023-04-01T11:44:15.922Z,12.35
2023-04-01T11:47:13.591Z,12.42
2023-04-01T11:50:06.573Z,12.41
2023-04-01T11:53:05.611Z,12.41
2023-04-01T11:56:03.334Z,12.52
2023-04-01T11:58:32.803Z,12.54
2023-04-01T12:01:47.092Z,12.88
2023-04-01T12:04:31.933Z,13.70
2023-04-01T12:07:37.231Z,14.60
2023-04-01T12:10:26.029Z,14.57
2023-04-01T12:13:06.416Z,14.68
2023-04-01T12:15:42.375Z,13.94
2023-04-01T12:18:48.412Z,13.52
2023-04-01T12:21:27.305Z,13.07
2023-04-01T12:24:41.507Z,12.65
2023-04-01T12:27:39.120Z,12.48
2023-04-01T12:30:30.849Z,12.50
2023-04-01T12:33:12.748Z,12.60
2023-04-01T12:36:14.228Z,12.38
2023-04-01T12:39:46.588Z,12.21
2023-04-01T12:43:06.507Z,12.14
2023-04-01T12:45:37.101Z,12.16
2023-04-01T12:48:25.975Z,12.20
2023-04-01T12:51:23.063Z,12.31
2023-04-01T12:54:17.550Z,12.06
2023-04-01T12:57:14.126Z,12.19
2023-04-01T13:00:31.520Z,12.45
2023-04-01T13:03:38.192Z,12.54
2023-04-01T13:06:34.719Z,12.61
2023-04-01T13:09:52.438Z,12.62
2023-04-01T13:12:54.049Z,12.47
2023-04-01T13:15:37.337Z,12.61
2023-04-01T13:18:37.498Z,12.49
2023-04-01T13:21:59.436Z,12.22
2023-04-01T13:25:01.352Z,12.16
2023-04-01T13:27:41.322Z,12.07
2023-04-01T13:30:45.797Z,12.24
2023-04-01T13:33:34.715Z,12.54
2023-04-01T13:36:42.784Z,12.79
2023-04-01T13:39:51.199Z,12.56
2023-04-01T13:42:36.302Z,12.32
2023-04-01T13:45:20.635Z,12.17
2023-04-01T13:48:27.868Z,11.91
2023-04-01T13:51:21.311Z,11.55
2023-04-01T13:54:06.466Z,11.16
2023-04-01T13:57:27.171Z,11.16
2023-04-01T14:00:18.353Z,11.30
2023-04-01T14:03:31.221Z,11.53
2023-04-01T14:06:33.385Z,11.72
2023-04-01T14:09:48.212Z,11.82
2023-04-01T14:12:30.913Z,11.98
2023-04-01T14:15:25.346Z,12.10
2023-04-01T14:18:14.222Z,12.49
2023-04-01T14:21:28.021Z,12.57
2023-04-01T14:24:26.060Z,12.34
2023-04-01T14:27:21.280Z,12.05
2023-04-01T14:30:15.286Z,11.89
2023-04-01T14:33:25.696Z,11.78
2023-04-01T14:36:44.469Z,11.80
2023-04-01T14:40:06.486Z,11.68
2023-04-01T14:43:07.232Z,11.58
2023-04-01T14:46:15.658Z,11.71
2023-04-01T14:49:15.597Z,11.78
2023-04-01T14:51:43.004Z,11.89
2023-04-01T14:54:12.820Z,11.71
2023-04-01T14:56:51.607Z,11.76
2023-04-01T14:59:24.468Z,11.74
2023-04-01T15:02:15.283Z,11.70
2023-04-01T15:05:14.448Z,11.72
2023-04-01T15:08:12.902Z,11.71
2023-04-01T15:10:54.643Z,11.67
2023-04-01T15:13:31.225Z,11.60
2023-04-01T15:16:25.872Z,11.64
2023-04-01T15:19:24.868Z,11.70
2023-04-01T15:22:18.658Z,11.80
2023-04-01T15:25:07.066Z,11.85
2023-04-01T15:27:45.264Z,11.72
2023-04-01T15:30:31.903Z,11.79
2023-04-01T15:33:26.254Z,11.57
2023-04-01T15:36:36.198Z,11.46
2023-04-01T15:39:17.876Z,11.48
2023-04-01T15:42:23.409Z,11.46
2023-04-01T15:44:53.232Z,11.44
2023-04-01T15:47:26.433Z,11.46
2023-04-01T15:50:47.470Z,11.40
2023-04-01T15:53:36.805Z,11.44
2023-04-01T15:56:24.707Z,11.41
2023-04-01T15:59:25.140Z,11.24
2023-04-01T16:02:20.754Z,11.25
2023-04-01T16:05:20.425Z,11.23
2023-04-01T16:08:31.195Z,11.16
2023-04-01T16:11:27.088Z,11.07
2023-04-01T16:14:43.527Z,11.07
2023-04-01T16:17:39.669Z,11.05
2023-04-01T16:20:21.813Z,10.89
2023-04-01T16:23:02.740Z,10.84
2023-04-01T16:25:46.238Z,10.95
2023-04-01T16:28:32.341Z,11.04
2023-04-01T16:31:14.557Z,11.04
2023-04-01T16:33:59.904Z,10.99
2023-04-01T16:37:15.524Z,10.91
2023-04-01T16:40:02.229Z,10.91
2023-04-01T16:43:05.792Z,10.95
2023-04-01T16:45:49.609Z,10.97
2023-04-01T16:48:30.455Z,11.08
2023-04-01T16:51:12.518Z,11.08
2023-04-01T16:53:46.737Z,11.03
2023-04-01T16:56:29.665Z,11.00
2023-04-01T16:59:22.732Z,10.95
2023-04-01T17:02:08.011Z,10.97
2023-04-01T17:04:58.815Z,10.93
2023-04-01T17:08:16.104Z,10.92
2023-04-01T17:11:02.188Z,10.97
2023-04-01T17:14:10.338Z,10.89
2023-04-01T17:17:11.886Z,10.70
2023-04-01T17:20:06.659Z,10.53
2023-04-01T17:23:13.406Z,10.36
2023-04-01T17:26:01.475Z,10.17
2023-04-01T17:28:53.744Z,9.93
2023-04-01T17:31:41.706Z,9.80
2023-04-01T17:34:34.178Z,9.83
2023-04-01T17:37:10.223Z,9.77
2023-04-01T17:40:09.658Z,9.79
2023-04-01T17:43:00.623Z,9.92
2023-04-01T17:45:55.616Z,9.88
2023-04-01T17:48:40.664Z,9.94
2023-04-01T17:51:49.969Z,9.97
2023-04-01T17:54:45.836Z,9.95
2023-04-01T17:57:48.017Z,9.94
2023-04-01T18:00:25.192Z,9.88
2023-04-01T18:03:22.016Z,9.85
2023-04-01T18:06:08.943Z,9.83
2023-04-01T18:09:26.594Z,9.75
2023-04-01T18:12:25.249Z,9.75
2023-04-01T18:15:18.661Z,9.74
2023-04-01T18:17:51.376Z,9.71
2023-04-01T18:20:49.246Z,9.72
2023-04-01T18:23:29.087Z,9.72
2023-04-01T18:26:13.722Z,9.64
2023-04-01T18:28:53.917Z,9.61
2023-04-01T18:31:33.832Z,9.61
2023-04-01T18:34:18.638Z,9.62
2023-04-01T18:37:12.533Z,9.66
2023-04-01T18:40:00.470Z,9.66
2023-04-01T18:43:17.699Z,9.58
2023-04-01T18:46:07.883Z,9.49
2023-04-01T18:49:06.282Z,9.53
2023-04-01T18:51:48.649Z,9.53
2023-04-01T18:54:41.442Z,9.47
2023-04-01T18:57:16.875Z,9.46
2023-04-01T18:59:54.073Z,9.48
2023-04-01T19:02:44.147Z,9.54
2023-04-01T19:05:27.585Z,9.50
2023-04-01T19:08:12.817Z,9.56
2023-04-01T19:11:11.748Z,9.54
2023-04-01T19:13:56.852Z,9.59
2023-04-01T19:16:51.371Z,9.55
2023-04-01T19:20:08.673Z,9.58
2023-04-01T19:22:51.007Z,9.58
2023-04-01T19:25:33.551Z,9.62
2023-04-01T19:28:51.884Z,9.63
2023-04-01T19:31:46.262Z,9.61
2023-04-01T19:34:32.547Z,9.61
2023-04-01T19:37:30.639Z,9.68
2023-04-01T19:40:36.198Z,9.71
2023-04-01T19:43:39.422Z,9.73
2023-04-01T19:46:29.943Z,9.75
2023-04-01T19:49:49.870Z,9.76
2023-04-01T19:52:42.251Z,9.73
2023-04-01T19:55:37.304Z,9.74
2023-04-01T19:58:27.283Z,9.78
2023-04-01T20:00:59.546Z,9.77
2023-04-01T20:03:51.121Z,9.77
2023-04-01T20:07:02.883Z,9.77
2023-04-01T20:10:04.112Z,9.77
2023-04-01T20:12:58.886Z,9.73
2023-04-01T20:15:47.677Z,9.71
2023-04-01T20:18:37.772Z,9.73
2023-04-01T20:21:50.817Z,9.71
2023-04-01T20:24:34.700Z,9.71
2023-04-01T20:27:18.087Z,9.67
2023-04-01T20:30:25.718Z,9.66
2023-04-01T20:33:22.752Z,9.67
2023-04-01T20:36:10.754Z,9.64
2023-04-01T20:39:36.071Z,9.60
2023-04-01T20:42:21.333Z,9.57
2023-04-01T20:45:34.793Z,9.56
2023-04-01T20:48:27.287Z,9.57
2023-04-01T20:51:22.729Z,9.53
2023-04-01T20:54:27.820Z,9.49
2023-04-01T20:57:27.971Z,9.54
2023-04-01T21:00:34.629Z,9.56
2023-04-01T21:03:01.428Z,9.53
2023-04-01T21:05:51.351Z,9.53
2023-04-01T21:08:52.345Z,9.54
2023-04-01T21:11:59.729Z,9.50
2023-04-01T21:15:00.297Z,9.56
2023-04-01T21:17:35.395Z,9.57
2023-04-01T21:20:05.182Z,9.57
2023-04-01T21:23:07.322Z,9.58
2023-04-01T21:26:20.569Z,9.53
2023-04-01T21:29:43.631Z,9.54
2023-04-01T21:32:57.919Z,9.60
2023-04-01T21:35:43.284Z,9.57
2023-04-01T21:38:37.374Z,9.62
2023-04-01T21:41:28.840Z,9.61
2023-04-01T21:44:33.486Z,9.56
2023-04-01T21:47:19.493Z,9.52
2023-04-01T21:50:23.583Z,9.56
2023-04-01T21:53:35.277Z,9.56
2023-04-01T21:56:32.803Z,9.58
2023-04-01T21:59:47.122Z,9.55
2023-04-01T22:03:06.083Z,9.59
2023-04-01T22:06:12.757Z,9.61
2023-04-01T22:08:51.995Z,9.61
2023-04-01T22:11:55.342Z,9.60
2023-04-01T22:14:32.387Z,9.60
2023-04-01T22:17:39.124Z,9.61
2023-04-01T22:20:41.787Z,9.62
2023-04-01T22:23:36.830Z,9.61
2023-04-01T22:26:23.288Z,9.61
2023-04-01T22:29:08.076Z,9.63
2023-04-01T22:32:03.474Z,9.65
2023-04-01T22:35:11.700Z,9.67
2023-04-01T22:38:15.080Z,9.63
2023-04-01T22:40:50.329Z,9.65
2023-04-01T22:43:33.567Z,9.66
2023-04-01T22:46:04.734Z,9.65
2023-04-01T22:48:50.365Z,9.64
2023-04-01T22:51:28.552Z,9.63
2023-04-01T22:54:04.321Z,9.60
2023-04-01T22:56:44.323Z,9.63
2023-04-01T22:59:24.568Z,9.63
2023-04-01T23:02:02.127Z,9.64
2023-04-01T23:04:43.085Z,9.66
2023-04-01T23:07:47.378Z,9.68
2023-04-01T23:10:29.748Z,9.69
2023-04-01T23:13:04.611Z,9.70
2023-04-01T23:15:34.200Z,9.69
2023-04-01T23:18:23.126Z,9.73
2023-04-01T23:21:16.329Z,9.71
2023-04-01T23:24:20.764Z,9.70
2023-04-01T23:27:01.697Z,9.69
2023-04-01T23:29:29.318Z,9.71
2023-04-01T23:32:05.216Z,9.71
2023-04-01T23:34:35.834Z,9.72
2023-04-01T23:37:17.036Z,9.71
2023-04-01T23:39:52.187Z,9.70
2023-04-01T23:42:28.014Z,9.73
2023-04-01T23:45:06.869Z,9.68
2023-04-01T23:47:39.324Z,9.68
2023-04-01T23:50:18.702Z,9.69
2023-04-01T23:52:58.362Z,9.67
2023-04-01T23:55:35.590Z,9.69
2023-04-01T23:58:43.466Z,9.69
